sensor_id;sensor_type;location;lat;lon;timestamp;P1;durP1;ratioP1;P2;durP2;ratioP2
20124;SDS011;10223;50.862;4.360;2023-05-14T00:01:01;67.17;;;36.20;;
20124;SDS011;10223;50.862;4.360;2023-05-14T00:03:28;63.60;;;39.43;;
20124;SDS011;10223;50.862;4.360;2023-05-14T00:05:56;60.17;;;33.37;;
20124;SDS011;10223;50.862;4.360;2023-05-14T00:08:23;63.90;;;35.30;;
20124;SDS011;10223;50.862;4.360;2023-05-14T00:10:50;66.07;;;35.90;;
20124;SDS011;10223;50.862;4.360;2023-05-14T00:13:17;58.13;;;35.50;;
20124;SDS011;10223;50.862;4.360;2023-05-14T00:15:44;66.23;;;37.30;;
20124;SDS011;10223;50.862;4.360;2023-05-14T00:18:11;63.80;;;34.93;;
20124;SDS011;10223;50.862;4.360;2023-05-14T00:20:38;61.50;;;36.37;;
20124;SDS011;10223;50.862;4.360;2023-05-14T00:23:07;64.43;;;36.77;;
20124;SDS011;10223;50.862;4.360;2023-05-14T00:25:34;68.93;;;36.23;;
20124;SDS011;10223;50.862;4.360;2023-05-14T00:28:02;67.77;;;36.00;;
20124;SDS011;10223;50.862;4.360;2023-05-14T00:30:29;64.70;;;37.20;;
20124;SDS011;10223;50.862;4.360;2023-05-14T00:32:55;62.53;;;35.27;;
20124;SDS011;10223;50.862;4.360;2023-05-14T00:35:22;68.47;;;37.60;;
20124;SDS011;10223;50.862;4.360;2023-05-14T00:37:49;64.50;;;36.83;;
20124;SDS011;10223;50.862;4.360;2023-05-14T00:40:18;70.90;;;38.00;;
20124;SDS011;10223;50.862;4.360;2023-05-14T00:42:45;71.73;;;36.20;;
20124;SDS011;10223;50.862;4.360;2023-05-14T00:45:12;66.83;;;37.47;;
20124;SDS011;10223;50.862;4.360;2023-05-14T00:47:39;67.30;;;36.30;;
20124;SDS011;10223;50.862;4.360;2023-05-14T00:50:06;75.07;;;39.37;;
20124;SDS011;10223;50.862;4.360;2023-05-14T00:52:35;68.63;;;38.80;;
20124;SDS011;10223;50.862;4.360;2023-05-14T00:55:03;70.47;;;37.67;;
20124;SDS011;10223;50.862;4.360;2023-05-14T00:57:33;72.30;;;35.57;;
20124;SDS011;10223;50.862;4.360;2023-05-14T01:00:01;65.17;;;38.00;;
20124;SDS011;10223;50.862;4.360;2023-05-14T01:02:29;68.97;;;37.27;;
20124;SDS011;10223;50.862;4.360;2023-05-14T01:04:56;65.67;;;37.33;;
20124;SDS011;10223;50.862;4.360;2023-05-14T01:07:24;70.50;;;37.67;;
20124;SDS011;10223;50.862;4.360;2023-05-14T01:09:57;75.23;;;39.50;;
20124;SDS011;10223;50.862;4.360;2023-05-14T01:12:28;74.80;;;39.97;;
20124;SDS011;10223;50.862;4.360;2023-05-14T01:15:05;79.27;;;41.70;;
20124;SDS011;10223;50.862;4.360;2023-05-14T01:17:37;82.47;;;41.27;;
20124;SDS011;10223;50.862;4.360;2023-05-14T01:20:08;68.63;;;38.77;;
20124;SDS011;10223;50.862;4.360;2023-05-14T01:22:37;80.90;;;40.03;;
20124;SDS011;10223;50.862;4.360;2023-05-14T01:25:05;74.43;;;39.13;;
20124;SDS011;10223;50.862;4.360;2023-05-14T01:27:34;64.33;;;37.30;;
20124;SDS011;10223;50.862;4.360;2023-05-14T01:30:08;78.83;;;37.73;;
20124;SDS011;10223;50.862;4.360;2023-05-14T01:32:41;69.87;;;39.50;;
20124;SDS011;10223;50.862;4.360;2023-05-14T01:35:12;77.57;;;40.63;;
20124;SDS011;10223;50.862;4.360;2023-05-14T01:37:42;69.23;;;41.13;;
20124;SDS011;10223;50.862;4.360;2023-05-14T01:40:10;82.40;;;43.37;;
20124;SDS011;10223;50.862;4.360;2023-05-14T01:42:38;74.43;;;39.47;;
20124;SDS011;10223;50.862;4.360;2023-05-14T01:45:05;72.13;;;40.53;;
20124;SDS011;10223;50.862;4.360;2023-05-14T01:47:33;69.27;;;39.40;;
20124;SDS011;10223;50.862;4.360;2023-05-14T01:50:00;74.23;;;40.33;;
20124;SDS011;10223;50.862;4.360;2023-05-14T01:52:27;69.83;;;39.60;;
20124;SDS011;10223;50.862;4.360;2023-05-14T01:54:56;70.43;;;38.97;;
20124;SDS011;10223;50.862;4.360;2023-05-14T01:57:24;70.87;;;39.13;;
20124;SDS011;10223;50.862;4.360;2023-05-14T01:59:51;76.80;;;39.50;;
20124;SDS011;10223;50.862;4.360;2023-05-14T02:02:18;77.83;;;39.87;;
20124;SDS011;10223;50.862;4.360;2023-05-14T02:04:45;80.13;;;40.63;;
20124;SDS011;10223;50.862;4.360;2023-05-14T02:07:12;79.80;;;41.10;;
20124;SDS011;10223;50.862;4.360;2023-05-14T02:09:39;73.77;;;39.27;;
20124;SDS011;10223;50.862;4.360;2023-05-14T02:12:08;78.27;;;39.90;;
20124;SDS011;10223;50.862;4.360;2023-05-14T02:14:35;75.93;;;39.90;;
20124;SDS011;10223;50.862;4.360;2023-05-14T02:17:04;85.93;;;40.70;;
20124;SDS011;10223;50.862;4.360;2023-05-14T02:19:31;75.50;;;39.90;;
20124;SDS011;10223;50.862;4.360;2023-05-14T02:21:58;79.17;;;39.70;;
20124;SDS011;10223;50.862;4.360;2023-05-14T02:24:25;72.97;;;38.93;;
20124;SDS011;10223;50.862;4.360;2023-05-14T02:26:52;75.23;;;39.07;;
20124;SDS011;10223;50.862;4.360;2023-05-14T02:29:20;76.87;;;40.80;;
20124;SDS011;10223;50.862;4.360;2023-05-14T02:31:47;75.43;;;37.80;;
20124;SDS011;10223;50.862;4.360;2023-05-14T02:34:14;79.40;;;40.63;;
20124;SDS011;10223;50.862;4.360;2023-05-14T02:36:41;77.13;;;39.90;;
20124;SDS011;10223;50.862;4.360;2023-05-14T02:39:08;78.90;;;39.80;;
20124;SDS011;10223;50.862;4.360;2023-05-14T02:41:35;73.93;;;39.63;;
20124;SDS011;10223;50.862;4.360;2023-05-14T02:44:02;71.07;;;38.33;;
20124;SDS011;10223;50.862;4.360;2023-05-14T02:46:30;75.00;;;39.43;;
20124;SDS011;10223;50.862;4.360;2023-05-14T02:48:57;73.47;;;38.70;;
20124;SDS011;10223;50.862;4.360;2023-05-14T02:51:24;76.10;;;39.23;;
20124;SDS011;10223;50.862;4.360;2023-05-14T02:53:51;73.67;;;39.60;;
20124;SDS011;10223;50.862;4.360;2023-05-14T02:56:18;72.00;;;39.00;;
20124;SDS011;10223;50.862;4.360;2023-05-14T02:58:46;75.20;;;38.77;;
20124;SDS011;10223;50.862;4.360;2023-05-14T03:01:13;74.03;;;39.73;;
20124;SDS011;10223;50.862;4.360;2023-05-14T03:03:42;74.10;;;38.63;;
20124;SDS011;10223;50.862;4.360;2023-05-14T03:06:09;78.60;;;38.63;;
20124;SDS011;10223;50.862;4.360;2023-05-14T03:08:36;73.17;;;38.17;;
20124;SDS011;10223;50.862;4.360;2023-05-14T03:11:03;75.10;;;39.83;;
20124;SDS011;10223;50.862;4.360;2023-05-14T03:13:30;74.50;;;37.17;;
20124;SDS011;10223;50.862;4.360;2023-05-14T03:15:57;75.50;;;39.03;;
20124;SDS011;10223;50.862;4.360;2023-05-14T03:18:24;73.50;;;39.10;;
20124;SDS011;10223;50.862;4.360;2023-05-14T03:20:53;74.10;;;38.83;;
20124;SDS011;10223;50.862;4.360;2023-05-14T03:23:20;70.27;;;37.83;;
20124;SDS011;10223;50.862;4.360;2023-05-14T03:25:47;75.77;;;39.77;;
20124;SDS011;10223;50.862;4.360;2023-05-14T03:28:15;72.13;;;38.70;;
20124;SDS011;10223;50.862;4.360;2023-05-14T03:30:41;73.93;;;39.53;;
20124;SDS011;10223;50.862;4.360;2023-05-14T03:33:08;69.60;;;38.57;;
20124;SDS011;10223;50.862;4.360;2023-05-14T03:35:35;66.53;;;37.37;;
20124;SDS011;10223;50.862;4.360;2023-05-14T03:38:04;72.87;;;38.57;;
20124;SDS011;10223;50.862;4.360;2023-05-14T03:40:31;72.80;;;38.43;;
20124;SDS011;10223;50.862;4.360;2023-05-14T03:42:58;76.03;;;39.10;;
20124;SDS011;10223;50.862;4.360;2023-05-14T03:45:25;77.67;;;39.97;;
20124;SDS011;10223;50.862;4.360;2023-05-14T03:47:55;74.50;;;38.77;;
20124;SDS011;10223;50.862;4.360;2023-05-14T03:50:21;75.77;;;40.20;;
20124;SDS011;10223;50.862;4.360;2023-05-14T03:52:49;78.07;;;38.40;;
20124;SDS011;10223;50.862;4.360;2023-05-14T03:55:18;66.87;;;36.73;;
20124;SDS011;10223;50.862;4.360;2023-05-14T03:57:45;76.53;;;39.07;;
20124;SDS011;10223;50.862;4.360;2023-05-14T04:00:13;71.10;;;38.57;;
20124;SDS011;10223;50.862;4.360;2023-05-14T04:02:40;76.57;;;37.97;;
20124;SDS011;10223;50.862;4.360;2023-05-14T04:05:07;73.90;;;38.57;;
20124;SDS011;10223;50.862;4.360;2023-05-14T04:07:34;75.37;;;39.17;;
20124;SDS011;10223;50.862;4.360;2023-05-14T04:10:01;73.20;;;39.57;;
20124;SDS011;10223;50.862;4.360;2023-05-14T04:12:30;73.30;;;39.00;;
20124;SDS011;10223;50.862;4.360;2023-05-14T04:15:00;73.40;;;39.00;;
20124;SDS011;10223;50.862;4.360;2023-05-14T04:17:26;74.30;;;37.00;;
20124;SDS011;10223;50.862;4.360;2023-05-14T04:19:53;74.03;;;38.67;;
20124;SDS011;10223;50.862;4.360;2023-05-14T04:22:20;68.13;;;38.20;;
20124;SDS011;10223;50.862;4.360;2023-05-14T04:24:47;71.73;;;38.97;;
20124;SDS011;10223;50.862;4.360;2023-05-14T04:27:18;70.17;;;36.47;;
20124;SDS011;10223;50.862;4.360;2023-05-14T04:29:47;73.93;;;36.83;;
20124;SDS011;10223;50.862;4.360;2023-05-14T04:32:14;63.43;;;34.73;;
20124;SDS011;10223;50.862;4.360;2023-05-14T04:34:41;69.23;;;37.10;;
20124;SDS011;10223;50.862;4.360;2023-05-14T04:37:08;72.90;;;37.90;;
20124;SDS011;10223;50.862;4.360;2023-05-14T04:39:35;69.90;;;36.33;;
20124;SDS011;10223;50.862;4.360;2023-05-14T04:42:03;75.97;;;38.50;;
20124;SDS011;10223;50.862;4.360;2023-05-14T04:44:30;76.03;;;37.70;;
20124;SDS011;10223;50.862;4.360;2023-05-14T04:47:00;74.97;;;38.70;;
20124;SDS011;10223;50.862;4.360;2023-05-14T04:49:27;69.97;;;37.20;;
20124;SDS011;10223;50.862;4.360;2023-05-14T04:51:54;80.33;;;39.93;;
20124;SDS011;10223;50.862;4.360;2023-05-14T04:54:21;80.10;;;39.27;;
20124;SDS011;10223;50.862;4.360;2023-05-14T04:56:48;73.70;;;36.80;;
20124;SDS011;10223;50.862;4.360;2023-05-14T04:59:16;67.73;;;36.33;;
20124;SDS011;10223;50.862;4.360;2023-05-14T05:01:42;75.07;;;38.83;;
20124;SDS011;10223;50.862;4.360;2023-05-14T05:04:11;69.93;;;36.13;;
20124;SDS011;10223;50.862;4.360;2023-05-14T05:06:38;80.07;;;43.03;;
20124;SDS011;10223;50.862;4.360;2023-05-14T05:09:05;72.50;;;38.23;;
20124;SDS011;10223;50.862;4.360;2023-05-14T05:11:33;78.73;;;38.10;;
20124;SDS011;10223;50.862;4.360;2023-05-14T05:14:00;74.83;;;38.97;;
20124;SDS011;10223;50.862;4.360;2023-05-14T05:16:27;79.77;;;37.57;;
20124;SDS011;10223;50.862;4.360;2023-05-14T05:18:54;71.73;;;37.77;;
20124;SDS011;10223;50.862;4.360;2023-05-14T05:21:22;73.17;;;38.47;;
20124;SDS011;10223;50.862;4.360;2023-05-14T05:23:49;80.93;;;40.67;;
20124;SDS011;10223;50.862;4.360;2023-05-14T05:26:16;74.10;;;37.70;;
20124;SDS011;10223;50.862;4.360;2023-05-14T05:28:43;71.80;;;37.63;;
20124;SDS011;10223;50.862;4.360;2023-05-14T05:31:10;71.10;;;37.60;;
20124;SDS011;10223;50.862;4.360;2023-05-14T05:33:37;73.97;;;38.00;;
20124;SDS011;10223;50.862;4.360;2023-05-14T05:36:04;78.90;;;37.83;;
20124;SDS011;10223;50.862;4.360;2023-05-14T05:38:33;76.20;;;36.63;;
20124;SDS011;10223;50.862;4.360;2023-05-14T05:41:00;69.43;;;35.93;;
20124;SDS011;10223;50.862;4.360;2023-05-14T05:43:27;68.17;;;35.63;;
20124;SDS011;10223;50.862;4.360;2023-05-14T05:45:54;66.00;;;35.37;;
20124;SDS011;10223;50.862;4.360;2023-05-14T05:48:21;70.33;;;36.10;;
20124;SDS011;10223;50.862;4.360;2023-05-14T05:50:47;73.50;;;36.43;;
20124;SDS011;10223;50.862;4.360;2023-05-14T05:53:15;67.23;;;35.73;;
20124;SDS011;10223;50.862;4.360;2023-05-14T05:55:44;68.90;;;35.30;;
20124;SDS011;10223;50.862;4.360;2023-05-14T05:58:12;65.17;;;37.23;;
20124;SDS011;10223;50.862;4.360;2023-05-14T06:00:41;68.73;;;35.93;;
20124;SDS011;10223;50.862;4.360;2023-05-14T06:03:08;64.63;;;34.60;;
20124;SDS011;10223;50.862;4.360;2023-05-14T06:05:35;67.03;;;35.17;;
20124;SDS011;10223;50.862;4.360;2023-05-14T06:08:02;69.67;;;34.20;;
20124;SDS011;10223;50.862;4.360;2023-05-14T06:10:32;62.50;;;33.63;;
20124;SDS011;10223;50.862;4.360;2023-05-14T06:13:01;63.40;;;35.33;;
20124;SDS011;10223;50.862;4.360;2023-05-14T06:15:28;64.90;;;35.70;;
20124;SDS011;10223;50.862;4.360;2023-05-14T06:17:55;65.20;;;34.97;;
20124;SDS011;10223;50.862;4.360;2023-05-14T06:20:22;70.90;;;35.23;;
20124;SDS011;10223;50.862;4.360;2023-05-14T06:22:49;65.50;;;35.67;;
20124;SDS011;10223;50.862;4.360;2023-05-14T06:25:16;68.67;;;35.43;;
20124;SDS011;10223;50.862;4.360;2023-05-14T06:27:43;69.73;;;35.27;;
20124;SDS011;10223;50.862;4.360;2023-05-14T06:30:12;68.70;;;34.60;;
20124;SDS011;10223;50.862;4.360;2023-05-14T06:32:40;68.33;;;36.57;;
20124;SDS011;10223;50.862;4.360;2023-05-14T06:35:07;60.23;;;32.80;;
20124;SDS011;10223;50.862;4.360;2023-05-14T06:37:34;69.37;;;35.07;;
20124;SDS011;10223;50.862;4.360;2023-05-14T06:40:04;64.50;;;33.33;;
20124;SDS011;10223;50.862;4.360;2023-05-14T06:42:34;71.20;;;37.43;;
20124;SDS011;10223;50.862;4.360;2023-05-14T06:45:01;60.07;;;32.17;;
20124;SDS011;10223;50.862;4.360;2023-05-14T06:47:29;58.93;;;32.97;;
20124;SDS011;10223;50.862;4.360;2023-05-14T06:49:56;58.20;;;33.03;;
20124;SDS011;10223;50.862;4.360;2023-05-14T06:52:25;60.03;;;33.10;;
20124;SDS011;10223;50.862;4.360;2023-05-14T06:54:52;65.47;;;33.33;;
20124;SDS011;10223;50.862;4.360;2023-05-14T06:57:18;59.00;;;32.63;;
20124;SDS011;10223;50.862;4.360;2023-05-14T06:59:46;59.30;;;33.37;;
20124;SDS011;10223;50.862;4.360;2023-05-14T07:02:13;60.83;;;33.30;;
20124;SDS011;10223;50.862;4.360;2023-05-14T07:04:41;55.90;;;30.53;;
20124;SDS011;10223;50.862;4.360;2023-05-14T07:07:08;58.43;;;33.27;;
20124;SDS011;10223;50.862;4.360;2023-05-14T07:09:42;57.90;;;32.03;;
20124;SDS011;10223;50.862;4.360;2023-05-14T07:12:09;65.27;;;33.87;;
20124;SDS011;10223;50.862;4.360;2023-05-14T07:14:36;65.70;;;34.77;;
20124;SDS011;10223;50.862;4.360;2023-05-14T07:17:03;65.00;;;32.20;;
20124;SDS011;10223;50.862;4.360;2023-05-14T07:19:30;62.50;;;32.27;;
20124;SDS011;10223;50.862;4.360;2023-05-14T07:22:01;63.20;;;33.07;;
20124;SDS011;10223;50.862;4.360;2023-05-14T07:24:28;55.70;;;31.07;;
20124;SDS011;10223;50.862;4.360;2023-05-14T07:26:55;57.47;;;31.10;;
20124;SDS011;10223;50.862;4.360;2023-05-14T07:29:22;60.60;;;32.10;;
20124;SDS011;10223;50.862;4.360;2023-05-14T07:31:50;60.23;;;31.23;;
20124;SDS011;10223;50.862;4.360;2023-05-14T07:34:17;54.57;;;29.57;;
20124;SDS011;10223;50.862;4.360;2023-05-14T07:36:44;53.37;;;30.40;;
20124;SDS011;10223;50.862;4.360;2023-05-14T07:39:12;60.13;;;30.13;;
20124;SDS011;10223;50.862;4.360;2023-05-14T07:41:39;56.17;;;32.80;;
20124;SDS011;10223;50.862;4.360;2023-05-14T07:44:06;53.80;;;32.50;;
20124;SDS011;10223;50.862;4.360;2023-05-14T07:46:33;58.60;;;31.57;;
20124;SDS011;10223;50.862;4.360;2023-05-14T07:49:00;58.20;;;30.97;;
20124;SDS011;10223;50.862;4.360;2023-05-14T07:51:26;49.00;;;30.17;;
20124;SDS011;10223;50.862;4.360;2023-05-14T07:53:54;61.53;;;32.17;;
20124;SDS011;10223;50.862;4.360;2023-05-14T07:56:22;54.00;;;30.13;;
20124;SDS011;10223;50.862;4.360;2023-05-14T07:58:49;54.07;;;29.97;;
20124;SDS011;10223;50.862;4.360;2023-05-14T08:01:16;54.63;;;30.67;;
20124;SDS011;10223;50.862;4.360;2023-05-14T08:03:43;51.67;;;30.40;;
20124;SDS011;10223;50.862;4.360;2023-05-14T08:06:10;54.30;;;30.43;;
20124;SDS011;10223;50.862;4.360;2023-05-14T08:08:37;56.67;;;30.37;;
20124;SDS011;10223;50.862;4.360;2023-05-14T08:11:05;52.33;;;29.77;;
20124;SDS011;10223;50.862;4.360;2023-05-14T08:13:33;52.27;;;31.80;;
20124;SDS011;10223;50.862;4.360;2023-05-14T08:16:00;49.07;;;29.47;;
20124;SDS011;10223;50.862;4.360;2023-05-14T08:18:27;51.40;;;30.10;;
20124;SDS011;10223;50.862;4.360;2023-05-14T08:20:54;53.17;;;30.50;;
20124;SDS011;10223;50.862;4.360;2023-05-14T08:23:21;50.73;;;30.27;;
20124;SDS011;10223;50.862;4.360;2023-05-14T08:25:47;45.80;;;27.73;;
20124;SDS011;10223;50.862;4.360;2023-05-14T08:28:14;55.40;;;29.27;;
20124;SDS011;10223;50.862;4.360;2023-05-14T08:30:43;51.13;;;29.20;;
20124;SDS011;10223;50.862;4.360;2023-05-14T08:33:09;49.30;;;28.77;;
20124;SDS011;10223;50.862;4.360;2023-05-14T08:35:36;48.97;;;28.80;;
20124;SDS011;10223;50.862;4.360;2023-05-14T08:38:03;47.80;;;28.67;;
20124;SDS011;10223;50.862;4.360;2023-05-14T08:40:30;47.27;;;27.17;;
20124;SDS011;10223;50.862;4.360;2023-05-14T08:42:57;49.33;;;30.47;;
20124;SDS011;10223;50.862;4.360;2023-05-14T08:45:28;212.60;;;43.87;;
20124;SDS011;10223;50.862;4.360;2023-05-14T08:47:59;101.23;;;31.87;;
20124;SDS011;10223;50.862;4.360;2023-05-14T08:50:29;48.97;;;26.40;;
20124;SDS011;10223;50.862;4.360;2023-05-14T08:52:56;43.47;;;26.80;;
20124;SDS011;10223;50.862;4.360;2023-05-14T08:55:24;40.73;;;24.97;;
20124;SDS011;10223;50.862;4.360;2023-05-14T08:57:53;49.27;;;25.40;;
20124;SDS011;10223;50.862;4.360;2023-05-14T09:00:20;45.00;;;25.10;;
20124;SDS011;10223;50.862;4.360;2023-05-14T09:02:47;46.93;;;25.10;;
20124;SDS011;10223;50.862;4.360;2023-05-14T09:05:16;45.77;;;25.47;;
20124;SDS011;10223;50.862;4.360;2023-05-14T09:07:44;39.97;;;25.63;;
20124;SDS011;10223;50.862;4.360;2023-05-14T09:10:12;41.67;;;24.97;;
20124;SDS011;10223;50.862;4.360;2023-05-14T09:12:40;52.40;;;28.80;;
20124;SDS011;10223;50.862;4.360;2023-05-14T09:15:07;40.47;;;25.60;;
20124;SDS011;10223;50.862;4.360;2023-05-14T09:17:34;38.97;;;24.37;;
20124;SDS011;10223;50.862;4.360;2023-05-14T09:20:01;36.47;;;24.27;;
20124;SDS011;10223;50.862;4.360;2023-05-14T09:22:30;36.33;;;23.93;;
20124;SDS011;10223;50.862;4.360;2023-05-14T09:25:00;36.93;;;24.23;;
20124;SDS011;10223;50.862;4.360;2023-05-14T09:27:29;40.27;;;24.50;;
20124;SDS011;10223;50.862;4.360;2023-05-14T09:30:03;37.40;;;23.50;;
20124;SDS011;10223;50.862;4.360;2023-05-14T09:32:34;35.30;;;23.37;;
20124;SDS011;10223;50.862;4.360;2023-05-14T09:35:11;35.15;;;23.15;;
20124;SDS011;10223;50.862;4.360;2023-05-14T09:37:43;39.90;;;23.75;;
20124;SDS011;10223;50.862;4.360;2023-05-14T09:40:12;40.45;;;22.58;;
20124;SDS011;10223;50.862;4.360;2023-05-14T09:42:40;30.75;;;22.38;;
20124;SDS011;10223;50.862;4.360;2023-05-14T09:45:07;34.05;;;22.40;;
20124;SDS011;10223;50.862;4.360;2023-05-14T09:47:35;32.38;;;22.58;;
20124;SDS011;10223;50.862;4.360;2023-05-14T09:50:02;33.28;;;22.17;;
20124;SDS011;10223;50.862;4.360;2023-05-14T09:52:29;34.42;;;22.77;;
20124;SDS011;10223;50.862;4.360;2023-05-14T09:54:58;30.52;;;21.42;;
20124;SDS011;10223;50.862;4.360;2023-05-14T09:57:26;38.00;;;24.13;;
20124;SDS011;10223;50.862;4.360;2023-05-14T09:59:53;39.05;;;24.48;;
20124;SDS011;10223;50.862;4.360;2023-05-14T10:02:21;32.58;;;22.80;;
20124;SDS011;10223;50.862;4.360;2023-05-14T10:04:49;37.38;;;23.90;;
20124;SDS011;10223;50.862;4.360;2023-05-14T10:07:20;31.13;;;21.33;;
20124;SDS011;10223;50.862;4.360;2023-05-14T10:09:49;31.33;;;20.67;;
20124;SDS011;10223;50.862;4.360;2023-05-14T10:12:21;29.23;;;19.83;;
20124;SDS011;10223;50.862;4.360;2023-05-14T10:14:49;29.50;;;20.50;;
20124;SDS011;10223;50.862;4.360;2023-05-14T10:17:22;34.33;;;21.10;;
20124;SDS011;10223;50.862;4.360;2023-05-14T10:19:56;30.05;;;21.23;;
20124;SDS011;10223;50.862;4.360;2023-05-14T10:22:26;29.52;;;20.80;;
20124;SDS011;10223;50.862;4.360;2023-05-14T10:24:58;31.30;;;20.13;;
20124;SDS011;10223;50.862;4.360;2023-05-14T10:27:27;31.63;;;19.88;;
20124;SDS011;10223;50.862;4.360;2023-05-14T10:29:55;29.15;;;19.70;;
20124;SDS011;10223;50.862;4.360;2023-05-14T10:32:22;28.00;;;18.98;;
20124;SDS011;10223;50.862;4.360;2023-05-14T10:34:51;28.50;;;19.17;;
20124;SDS011;10223;50.862;4.360;2023-05-14T10:37:19;32.97;;;19.48;;
20124;SDS011;10223;50.862;4.360;2023-05-14T10:39:47;27.95;;;19.77;;
20124;SDS011;10223;50.862;4.360;2023-05-14T10:42:16;29.70;;;19.13;;
20124;SDS011;10223;50.862;4.360;2023-05-14T10:44:49;26.25;;;18.15;;
20124;SDS011;10223;50.862;4.360;2023-05-14T10:47:17;24.92;;;17.00;;
20124;SDS011;10223;50.862;4.360;2023-05-14T10:49:45;27.30;;;19.52;;
20124;SDS011;10223;50.862;4.360;2023-05-14T10:52:14;24.38;;;16.85;;
20124;SDS011;10223;50.862;4.360;2023-05-14T10:54:48;24.48;;;17.48;;
20124;SDS011;10223;50.862;4.360;2023-05-14T10:57:16;28.33;;;18.50;;
20124;SDS011;10223;50.862;4.360;2023-05-14T10:59:45;34.88;;;20.17;;
20124;SDS011;10223;50.862;4.360;2023-05-14T11:02:21;29.40;;;18.65;;
20124;SDS011;10223;50.862;4.360;2023-05-14T11:04:56;27.20;;;18.75;;
20124;SDS011;10223;50.862;4.360;2023-05-14T11:07:28;34.42;;;19.60;;
20124;SDS011;10223;50.862;4.360;2023-05-14T11:10:00;26.42;;;18.27;;
20124;SDS011;10223;50.862;4.360;2023-05-14T11:12:29;25.10;;;17.70;;
20124;SDS011;10223;50.862;4.360;2023-05-14T11:14:57;28.00;;;18.85;;
20124;SDS011;10223;50.862;4.360;2023-05-14T11:17:27;27.48;;;17.70;;
20124;SDS011;10223;50.862;4.360;2023-05-14T11:19:55;23.30;;;17.35;;
20124;SDS011;10223;50.862;4.360;2023-05-14T11:22:22;22.88;;;17.20;;
20124;SDS011;10223;50.862;4.360;2023-05-14T11:24:50;27.20;;;17.63;;
20124;SDS011;10223;50.862;4.360;2023-05-14T11:27:17;24.23;;;17.52;;
20124;SDS011;10223;50.862;4.360;2023-05-14T11:29:46;25.95;;;17.13;;
20124;SDS011;10223;50.862;4.360;2023-05-14T11:32:13;27.48;;;17.25;;
20124;SDS011;10223;50.862;4.360;2023-05-14T11:34:43;28.40;;;17.73;;
20124;SDS011;10223;50.862;4.360;2023-05-14T11:37:11;21.27;;;17.13;;
20124;SDS011;10223;50.862;4.360;2023-05-14T11:39:45;37.00;;;22.90;;
20124;SDS011;10223;50.862;4.360;2023-05-14T11:42:13;26.13;;;16.67;;
20124;SDS011;10223;50.862;4.360;2023-05-14T11:44:42;22.75;;;17.10;;
20124;SDS011;10223;50.862;4.360;2023-05-14T11:47:10;26.80;;;18.00;;
20124;SDS011;10223;50.862;4.360;2023-05-14T11:49:37;24.60;;;17.42;;
20124;SDS011;10223;50.862;4.360;2023-05-14T11:52:06;24.88;;;16.23;;
20124;SDS011;10223;50.862;4.360;2023-05-14T11:54:34;22.52;;;16.55;;
20124;SDS011;10223;50.862;4.360;2023-05-14T11:57:01;26.83;;;16.77;;
20124;SDS011;10223;50.862;4.360;2023-05-14T11:59:33;29.17;;;17.38;;
20124;SDS011;10223;50.862;4.360;2023-05-14T12:02:01;23.27;;;16.75;;
20124;SDS011;10223;50.862;4.360;2023-05-14T12:04:29;22.05;;;16.13;;
20124;SDS011;10223;50.862;4.360;2023-05-14T12:06:56;30.70;;;16.30;;
20124;SDS011;10223;50.862;4.360;2023-05-14T12:09:26;24.75;;;17.58;;
20124;SDS011;10223;50.862;4.360;2023-05-14T12:11:53;27.48;;;16.33;;
20124;SDS011;10223;50.862;4.360;2023-05-14T12:14:20;21.10;;;15.88;;
20124;SDS011;10223;50.862;4.360;2023-05-14T12:16:48;24.13;;;16.55;;
20124;SDS011;10223;50.862;4.360;2023-05-14T12:19:17;23.08;;;16.45;;
20124;SDS011;10223;50.862;4.360;2023-05-14T12:21:47;21.25;;;15.55;;
20124;SDS011;10223;50.862;4.360;2023-05-14T12:24:17;19.50;;;14.90;;
20124;SDS011;10223;50.862;4.360;2023-05-14T12:26:47;24.95;;;16.80;;
20124;SDS011;10223;50.862;4.360;2023-05-14T12:29:19;24.17;;;16.33;;
20124;SDS011;10223;50.862;4.360;2023-05-14T12:31:47;24.95;;;18.35;;
20124;SDS011;10223;50.862;4.360;2023-05-14T12:34:15;24.75;;;16.15;;
20124;SDS011;10223;50.862;4.360;2023-05-14T12:36:42;23.88;;;16.55;;
20124;SDS011;10223;50.862;4.360;2023-05-14T12:39:10;23.70;;;16.48;;
20124;SDS011;10223;50.862;4.360;2023-05-14T12:41:37;73.55;;;48.85;;
20124;SDS011;10223;50.862;4.360;2023-05-14T12:44:05;26.75;;;17.33;;
20124;SDS011;10223;50.862;4.360;2023-05-14T12:46:32;24.38;;;18.55;;
20124;SDS011;10223;50.862;4.360;2023-05-14T12:48:59;23.40;;;15.18;;
20124;SDS011;10223;50.862;4.360;2023-05-14T12:51:26;27.80;;;18.55;;
20124;SDS011;10223;50.862;4.360;2023-05-14T12:53:54;25.58;;;19.08;;
20124;SDS011;10223;50.862;4.360;2023-05-14T12:56:20;25.73;;;15.90;;
20124;SDS011;10223;50.862;4.360;2023-05-14T12:58:52;22.88;;;16.40;;
20124;SDS011;10223;50.862;4.360;2023-05-14T13:01:21;24.80;;;15.98;;
20124;SDS011;10223;50.862;4.360;2023-05-14T13:03:49;23.48;;;15.25;;
20124;SDS011;10223;50.862;4.360;2023-05-14T13:06:16;25.00;;;16.88;;
20124;SDS011;10223;50.862;4.360;2023-05-14T13:08:43;26.05;;;17.08;;
20124;SDS011;10223;50.862;4.360;2023-05-14T13:11:10;25.40;;;19.40;;
20124;SDS011;10223;50.862;4.360;2023-05-14T13:13:37;26.35;;;15.45;;
20124;SDS011;10223;50.862;4.360;2023-05-14T13:16:04;23.98;;;15.68;;
20124;SDS011;10223;50.862;4.360;2023-05-14T13:18:33;23.08;;;15.02;;
20124;SDS011;10223;50.862;4.360;2023-05-14T13:21:00;22.98;;;15.13;;
20124;SDS011;10223;50.862;4.360;2023-05-14T13:23:30;21.60;;;14.43;;
20124;SDS011;10223;50.862;4.360;2023-05-14T13:25:57;19.80;;;13.68;;
20124;SDS011;10223;50.862;4.360;2023-05-14T13:28:24;20.20;;;14.40;;
20124;SDS011;10223;50.862;4.360;2023-05-14T13:31:04;19.95;;;14.25;;
20124;SDS011;10223;50.862;4.360;2023-05-14T13:33:38;19.50;;;13.88;;
20124;SDS011;10223;50.862;4.360;2023-05-14T13:36:06;18.05;;;12.85;;
20124;SDS011;10223;50.862;4.360;2023-05-14T13:38:34;16.30;;;11.82;;
20124;SDS011;10223;50.862;4.360;2023-05-14T13:41:01;15.55;;;11.65;;
20124;SDS011;10223;50.862;4.360;2023-05-14T13:43:30;15.05;;;11.25;;
20124;SDS011;10223;50.862;4.360;2023-05-14T13:45:57;16.50;;;12.30;;
20124;SDS011;10223;50.862;4.360;2023-05-14T13:48:25;17.95;;;12.68;;
20124;SDS011;10223;50.862;4.360;2023-05-14T13:50:53;16.77;;;11.13;;
20124;SDS011;10223;50.862;4.360;2023-05-14T13:53:20;17.60;;;11.80;;
20124;SDS011;10223;50.862;4.360;2023-05-14T13:55:48;13.05;;;11.05;;
20124;SDS011;10223;50.862;4.360;2023-05-14T13:58:20;15.10;;;10.38;;
20124;SDS011;10223;50.862;4.360;2023-05-14T14:00:47;13.23;;;10.32;;
20124;SDS011;10223;50.862;4.360;2023-05-14T14:03:14;15.68;;;9.68;;
20124;SDS011;10223;50.862;4.360;2023-05-14T14:05:41;16.20;;;11.20;;
20124;SDS011;10223;50.862;4.360;2023-05-14T14:08:09;14.52;;;11.02;;
20124;SDS011;10223;50.862;4.360;2023-05-14T14:10:36;13.93;;;10.38;;
20124;SDS011;10223;50.862;4.360;2023-05-14T14:13:05;15.75;;;10.85;;
20124;SDS011;10223;50.862;4.360;2023-05-14T14:15:32;15.57;;;12.32;;
20124;SDS011;10223;50.862;4.360;2023-05-14T14:17:59;14.00;;;10.15;;
20124;SDS011;10223;50.862;4.360;2023-05-14T14:20:26;16.33;;;9.77;;
20124;SDS011;10223;50.862;4.360;2023-05-14T14:22:53;16.38;;;10.23;;
20124;SDS011;10223;50.862;4.360;2023-05-14T14:25:21;11.65;;;9.52;;